sensor_id;sensor_type;location;lat;lon;timestamp;pressure;altitude;pressure_sealevel;temperature;humidity
77023;BME280;65952;51.440;-2.054;2023-07-22T00:02:22;100140.94;;;15.37;66.95
77023;BME280;65952;51.440;-2.054;2023-07-22T00:04:48;100143.50;;;15.45;66.44
77023;BME280;65952;51.440;-2.054;2023-07-22T00:07:14;100134.34;;;15.46;66.47
77023;BME280;65952;51.440;-2.054;2023-07-22T00:09:41;100126.63;;;15.43;66.50
77023;BME280;65952;51.440;-2.054;2023-07-22T00:12:07;100127.47;;;15.43;66.64
77023;BME280;65952;51.440;-2.054;2023-07-22T00:14:33;100125.16;;;15.40;66.54
77023;BME280;65952;51.440;-2.054;2023-07-22T00:16:58;100135.97;;;15.40;66.76
77023;BME280;65952;51.440;-2.054;2023-07-22T00:19:23;100133.06;;;15.42;66.61
77023;BME280;65952;51.440;-2.054;2023-07-22T00:21:49;100125.16;;;15.40;66.88
77023;BME280;65952;51.440;-2.054;2023-07-22T00:24:14;100127.25;;;15.38;66.59
77023;BME280;65952;51.440;-2.054;2023-07-22T00:26:41;100125.56;;;15.37;67.14
77023;BME280;65952;51.440;-2.054;2023-07-22T00:29:07;100123.72;;;15.44;66.81
77023;BME280;65952;51.440;-2.054;2023-07-22T00:31:33;100121.19;;;15.43;66.72
77023;BME280;65952;51.440;-2.054;2023-07-22T00:33:58;100117.25;;;15.46;66.71
77023;BME280;65952;51.440;-2.054;2023-07-22T00:36:25;100117.91;;;15.48;66.81
77023;BME280;65952;51.440;-2.054;2023-07-22T00:38:50;100109.56;;;15.49;66.69
77023;BME280;65952;51.440;-2.054;2023-07-22T00:41:18;100103.13;;;15.50;67.04
77023;BME280;65952;51.440;-2.054;2023-07-22T00:43:43;100107.06;;;15.54;66.39
77023;BME280;65952;51.440;-2.054;2023-07-22T00:46:08;100101.25;;;15.57;66.45
77023;BME280;65952;51.440;-2.054;2023-07-22T00:48:34;100102.94;;;15.58;66.55
77023;BME280;65952;51.440;-2.054;2023-07-22T00:50:59;100106.25;;;15.54;66.48
77023;BME280;65952;51.440;-2.054;2023-07-22T00:53:25;100106.03;;;15.55;66.68
77023;BME280;65952;51.440;-2.054;2023-07-22T00:55:50;100100.19;;;15.52;66.64
77023;BME280;65952;51.440;-2.054;2023-07-22T00:58:16;100096.47;;;15.59;66.61
77023;BME280;65952;51.440;-2.054;2023-07-22T01:00:42;100099.38;;;15.58;66.65
77023;BME280;65952;51.440;-2.054;2023-07-22T01:03:07;100089.19;;;15.60;66.48
77023;BME280;65952;51.440;-2.054;2023-07-22T01:05:34;100094.00;;;15.65;66.60
77023;BME280;65952;51.440;-2.054;2023-07-22T01:08:02;100081.94;;;15.67;66.36
77023;BME280;65952;51.440;-2.054;2023-07-22T01:10:27;100079.00;;;15.69;66.62
77023;BME280;65952;51.440;-2.054;2023-07-22T01:12:53;100070.25;;;15.67;66.58
77023;BME280;65952;51.440;-2.054;2023-07-22T01:15:19;100065.47;;;15.69;66.92
77023;BME280;65952;51.440;-2.054;2023-07-22T01:17:44;100067.75;;;15.72;66.48
77023;BME280;65952;51.440;-2.054;2023-07-22T01:20:10;100058.59;;;15.73;66.54
77023;BME280;65952;51.440;-2.054;2023-07-22T01:22:36;100063.38;;;15.71;66.45
77023;BME280;65952;51.440;-2.054;2023-07-22T01:25:02;100062.97;;;15.74;66.49
77023;BME280;65952;51.440;-2.054;2023-07-22T01:27:28;100062.97;;;15.74;66.51
77023;BME280;65952;51.440;-2.054;2023-07-22T01:29:54;100061.50;;;15.71;66.46
77023;BME280;65952;51.440;-2.054;2023-07-22T01:32:20;100051.53;;;15.65;67.03
77023;BME280;65952;51.440;-2.054;2023-07-22T01:34:45;100055.25;;;15.64;67.36
77023;BME280;65952;51.440;-2.054;2023-07-22T01:37:11;100055.25;;;15.64;67.12
77023;BME280;65952;51.440;-2.054;2023-07-22T01:39:36;100049.44;;;15.60;67.58
77023;BME280;65952;51.440;-2.054;2023-07-22T01:42:02;100051.75;;;15.64;67.32
77023;BME280;65952;51.440;-2.054;2023-07-22T01:44:28;100044.88;;;15.61;67.23
77023;BME280;65952;51.440;-2.054;2023-07-22T01:46:53;100041.09;;;15.55;67.69
77023;BME280;65952;51.440;-2.054;2023-07-22T01:49:19;100043.59;;;15.57;67.63
77023;BME280;65952;51.440;-2.054;2023-07-22T01:51:44;100044.44;;;15.57;67.43
77023;BME280;65952;51.440;-2.054;2023-07-22T01:54:11;100033.81;;;15.49;67.59
77023;BME280;65952;51.440;-2.054;2023-07-22T01:56:38;100039.88;;;15.44;67.88
77023;BME280;65952;51.440;-2.054;2023-07-22T01:59:05;100033.22;;;15.47;67.54
77023;BME280;65952;51.440;-2.054;2023-07-22T02:01:31;100025.69;;;15.49;67.46
77023;BME280;65952;51.440;-2.054;2023-07-22T02:03:57;100019.03;;;15.45;67.33
77023;BME280;65952;51.440;-2.054;2023-07-22T02:06:22;100021.97;;;15.43;67.25
77023;BME280;65952;51.440;-2.054;2023-07-22T02:08:49;100025.28;;;15.46;67.16
77023;BME280;65952;51.440;-2.054;2023-07-22T02:11:16;100019.03;;;15.45;67.21
77023;BME280;65952;51.440;-2.054;2023-07-22T02:13:41;100022.56;;;15.46;66.95
77023;BME280;65952;51.440;-2.054;2023-07-22T02:16:07;100022.38;;;15.47;67.14
77023;BME280;65952;51.440;-2.054;2023-07-22T02:18:36;100016.75;;;15.42;67.58
77023;BME280;65952;51.440;-2.054;2023-07-22T02:21:02;100016.13;;;15.40;67.66
77023;BME280;65952;51.440;-2.054;2023-07-22T02:23:27;100011.13;;;15.37;67.87
77023;BME280;65952;51.440;-2.054;2023-07-22T02:25:54;100008.03;;;15.40;67.64
77023;BME280;65952;51.440;-2.054;2023-07-22T02:28:20;100006.13;;;15.40;67.36
77023;BME280;65952;51.440;-2.054;2023-07-22T02:30:51;100008.63;;;15.35;67.79
77023;BME280;65952;51.440;-2.054;2023-07-22T02:33:18;99997.81;;;15.28;67.93
77023;BME280;65952;51.440;-2.054;2023-07-22T02:35:44;99994.91;;;15.23;68.12
77023;BME280;65952;51.440;-2.054;2023-07-22T02:38:09;99996.34;;;15.33;67.83
77023;BME280;65952;51.440;-2.054;2023-07-22T02:40:36;99989.69;;;15.28;68.17
77023;BME280;65952;51.440;-2.054;2023-07-22T02:43:01;99994.91;;;15.30;68.07
77023;BME280;65952;51.440;-2.054;2023-07-22T02:45:27;99987.81;;;15.29;67.73
77023;BME280;65952;51.440;-2.054;2023-07-22T02:47:52;99989.06;;;15.26;67.91
77023;BME280;65952;51.440;-2.054;2023-07-22T02:50:18;99987.41;;;15.25;68.28
77023;BME280;65952;51.440;-2.054;2023-07-22T02:52:46;99986.16;;;15.28;67.82
77023;BME280;65952;51.440;-2.054;2023-07-22T02:55:14;99990.72;;;15.27;67.93
77023;BME280;65952;51.440;-2.054;2023-07-22T02:57:40;99992.81;;;15.25;68.30
77023;BME280;65952;51.440;-2.054;2023-07-22T03:00:07;99985.50;;;15.19;68.41
77023;BME280;65952;51.440;-2.054;2023-07-22T03:02:34;99982.00;;;15.25;68.38
77023;BME280;65952;51.440;-2.054;2023-07-22T03:05:00;99975.34;;;15.21;68.47
77023;BME280;65952;51.440;-2.054;2023-07-22T03:07:25;99971.38;;;15.24;68.15
77023;BME280;65952;51.440;-2.054;2023-07-22T03:09:53;99974.31;;;15.22;68.31
77023;BME280;65952;51.440;-2.054;2023-07-22T03:12:19;99976.16;;;15.15;68.46
77023;BME280;65952;51.440;-2.054;2023-07-22T03:14:44;99981.56;;;15.15;68.47
77023;BME280;65952;51.440;-2.054;2023-07-22T03:17:10;99972.00;;;15.13;68.65
77023;BME280;65952;51.440;-2.054;2023-07-22T03:19:37;99969.50;;;15.11;68.37
77023;BME280;65952;51.440;-2.054;2023-07-22T03:22:03;99967.03;;;15.09;68.29
77023;BME280;65952;51.440;-2.054;2023-07-22T03:24:28;99976.78;;;15.04;68.34
77023;BME280;65952;51.440;-2.054;2023-07-22T03:26:54;99967.00;;;15.03;68.50
77023;BME280;65952;51.440;-2.054;2023-07-22T03:29:19;99966.78;;;14.98;68.48
77023;BME280;65952;51.440;-2.054;2023-07-22T03:31:45;99963.03;;;14.99;68.42
77023;BME280;65952;51.440;-2.054;2023-07-22T03:34:10;99968.88;;;14.95;68.59
77023;BME280;65952;51.440;-2.054;2023-07-22T03:36:36;99975.09;;;14.89;68.78
77023;BME280;65952;51.440;-2.054;2023-07-22T03:39:01;99974.03;;;14.77;69.21
77023;BME280;65952;51.440;-2.054;2023-07-22T03:41:28;99968.59;;;14.70;69.62
77023;BME280;65952;51.440;-2.054;2023-07-22T03:43:53;99966.50;;;14.66;69.73
77023;BME280;65952;51.440;-2.054;2023-07-22T03:46:19;99970.47;;;14.70;69.71
77023;BME280;65952;51.440;-2.054;2023-07-22T03:48:44;99966.94;;;14.69;69.77
77023;BME280;65952;51.440;-2.054;2023-07-22T03:51:09;99970.47;;;14.70;69.93
77023;BME280;65952;51.440;-2.054;2023-07-22T03:53:35;99972.28;;;14.62;70.39
77023;BME280;65952;51.440;-2.054;2023-07-22T03:56:00;99959.22;;;14.66;70.29
77023;BME280;65952;51.440;-2.054;2023-07-22T03:58:26;99964.00;;;14.64;70.09
77023;BME280;65952;51.440;-2.054;2023-07-22T04:00:51;99964.84;;;14.65;70.11
77023;BME280;65952;51.440;-2.054;2023-07-22T04:03:17;99960.44;;;14.63;70.19
77023;BME280;65952;51.440;-2.054;2023-07-22T04:05:42;99949.00;;;14.61;70.40
77023;BME280;65952;51.440;-2.054;2023-07-22T04:08:07;99959.19;;;14.59;70.67
77023;BME280;65952;51.440;-2.054;2023-07-22T04:10:34;99951.09;;;14.59;70.57
77023;BME280;65952;51.440;-2.054;2023-07-22T04:12:59;99953.19;;;14.64;70.21
77023;BME280;65952;51.440;-2.054;2023-07-22T04:15:25;99952.94;;;14.59;70.32
77023;BME280;65952;51.440;-2.054;2023-07-22T04:17:50;99952.31;;;14.57;70.66
77023;BME280;65952;51.440;-2.054;2023-07-22T04:20:16;99946.47;;;14.46;70.77
77023;BME280;65952;51.440;-2.054;2023-07-22T04:22:43;99949.00;;;14.61;70.53
77023;BME280;65952;51.440;-2.054;2023-07-22T04:25:09;99950.44;;;14.51;70.71
77023;BME280;65952;51.440;-2.054;2023-07-22T04:27:34;99941.09;;;14.60;70.23
77023;BME280;65952;51.440;-2.054;2023-07-22T04:29:59;99945.31;;;14.69;70.01
77023;BME280;65952;51.440;-2.054;2023-07-22T04:32:25;99935.75;;;14.67;70.40
77023;BME280;65952;51.440;-2.054;2023-07-22T04:34:50;99938.25;;;14.68;70.36
77023;BME280;65952;51.440;-2.054;2023-07-22T04:37:16;99931.41;;;14.72;69.92
77023;BME280;65952;51.440;-2.054;2023-07-22T04:39:42;99933.66;;;14.69;70.36
77023;BME280;65952;51.440;-2.054;2023-07-22T04:42:08;99924.09;;;14.73;70.11
77023;BME280;65952;51.440;-2.054;2023-07-22T04:44:33;99924.97;;;14.80;69.75
77023;BME280;65952;51.440;-2.054;2023-07-22T04:46:59;99915.00;;;14.81;69.82
77023;BME280;65952;51.440;-2.054;2023-07-22T04:49:28;99919.97;;;14.84;70.01
77023;BME280;65952;51.440;-2.054;2023-07-22T04:51:53;99919.75;;;14.78;70.66
77023;BME280;65952;51.440;-2.054;2023-07-22T04:54:18;99913.97;;;14.88;70.17
77023;BME280;65952;51.440;-2.054;2023-07-22T04:56:44;99925.00;;;14.87;70.24
77023;BME280;65952;51.440;-2.054;2023-07-22T04:59:09;99922.50;;;14.92;70.08
77023;BME280;65952;51.440;-2.054;2023-07-22T05:01:35;99913.34;;;15.00;69.77
77023;BME280;65952;51.440;-2.054;2023-07-22T05:04:00;99910.44;;;15.08;69.73
77023;BME280;65952;51.440;-2.054;2023-07-22T05:06:27;99908.78;;;15.07;69.66
77023;BME280;65952;51.440;-2.054;2023-07-22T05:08:53;99911.06;;;15.10;69.50
77023;BME280;65952;51.440;-2.054;2023-07-22T05:11:18;99909.63;;;15.01;69.73
77023;BME280;65952;51.440;-2.054;2023-07-22T05:13:44;99899.63;;;15.15;69.53
77023;BME280;65952;51.440;-2.054;2023-07-22T05:16:09;99916.88;;;15.20;69.28
77023;BME280;65952;51.440;-2.054;2023-07-22T05:18:34;99902.09;;;15.23;69.64
77023;BME280;65952;51.440;-2.054;2023-07-22T05:21:00;99908.38;;;15.23;69.65
77023;BME280;65952;51.440;-2.054;2023-07-22T05:23:25;99910.84;;;15.11;69.79
77023;BME280;65952;51.440;-2.054;2023-07-22T05:25:52;99892.34;;;15.08;69.89
77023;BME280;65952;51.440;-2.054;2023-07-22T05:28:17;99895.44;;;15.25;69.53
77023;BME280;65952;51.440;-2.054;2023-07-22T05:30:43;99902.13;;;15.16;69.43
77023;BME280;65952;51.440;-2.054;2023-07-22T05:33:08;99900.03;;;15.11;69.68
77023;BME280;65952;51.440;-2.054;2023-07-22T05:35:34;99890.03;;;15.25;69.48
77023;BME280;65952;51.440;-2.054;2023-07-22T05:37:59;99894.81;;;15.17;69.57
77023;BME280;65952;51.440;-2.054;2023-07-22T05:40:25;99894.63;;;15.25;69.46
77023;BME280;65952;51.440;-2.054;2023-07-22T05:42:51;99893.16;;;15.29;69.71
77023;BME280;65952;51.440;-2.054;2023-07-22T05:45:16;99889.84;;;15.34;69.33
77023;BME280;65952;51.440;-2.054;2023-07-22T05:47:42;99882.97;;;15.38;69.31
77023;BME280;65952;51.440;-2.054;2023-07-22T05:50:07;99881.28;;;15.50;68.79
77023;BME280;65952;51.440;-2.054;2023-07-22T05:52:33;99887.72;;;15.63;68.64
77023;BME280;65952;51.440;-2.054;2023-07-22T05:54:58;99879.81;;;15.61;68.61
77023;BME280;65952;51.440;-2.054;2023-07-22T05:57:24;99871.44;;;15.76;68.14
77023;BME280;65952;51.440;-2.054;2023-07-22T05:59:49;99880.16;;;15.91;67.90
77023;BME280;65952;51.440;-2.054;2023-07-22T06:02:17;99873.44;;;16.01;67.79
77023;BME280;65952;51.440;-2.054;2023-07-22T06:04:43;99871.19;;;15.91;67.80
77023;BME280;65952;51.440;-2.054;2023-07-22T06:07:09;99872.84;;;15.99;67.99
77023;BME280;65952;51.440;-2.054;2023-07-22T06:09:34;99871.16;;;16.04;67.48
77023;BME280;65952;51.440;-2.054;2023-07-22T06:12:00;99864.25;;;16.15;67.16
77023;BME280;65952;51.440;-2.054;2023-07-22T06:14:26;99866.97;;;16.08;67.55
77023;BME280;65952;51.440;-2.054;2023-07-22T06:16:52;99869.03;;;16.13;67.29
77023;BME280;65952;51.440;-2.054;2023-07-22T06:19:18;99864.56;;;16.32;67.23
77023;BME280;65952;51.440;-2.054;2023-07-22T06:21:43;99855.72;;;16.44;65.77
77023;BME280;65952;51.440;-2.054;2023-07-22T06:24:09;99859.63;;;16.54;66.01
77023;BME280;65952;51.440;-2.054;2023-07-22T06:26:35;99863.78;;;16.57;65.60
77023;BME280;65952;51.440;-2.054;2023-07-22T06:29:00;99858.09;;;16.65;65.19
77023;BME280;65952;51.440;-2.054;2023-07-22T06:31:26;99858.38;;;16.82;64.60
77023;BME280;65952;51.440;-2.054;2023-07-22T06:33:58;99843.81;;;17.09;63.68
77023;BME280;65952;51.440;-2.054;2023-07-22T06:36:25;99844.00;;;17.32;62.74
77023;BME280;65952;51.440;-2.054;2023-07-22T06:38:51;99848.47;;;17.45;62.27
77023;BME280;65952;51.440;-2.054;2023-07-22T06:41:16;99848.75;;;17.37;61.99
77023;BME280;65952;51.440;-2.054;2023-07-22T06:43:41;99839.72;;;17.43;61.74
77023;BME280;65952;51.440;-2.054;2023-07-22T06:46:07;99838.38;;;17.52;61.24
77023;BME280;65952;51.440;-2.054;2023-07-22T06:48:32;99846.44;;;17.59;61.44
77023;BME280;65952;51.440;-2.054;2023-07-22T06:50:58;99834.06;;;18.00;60.09
77023;BME280;65952;51.440;-2.054;2023-07-22T06:53:23;99833.59;;;18.03;59.56
77023;BME280;65952;51.440;-2.054;2023-07-22T06:55:52;99837.69;;;18.13;59.46
77023;BME280;65952;51.440;-2.054;2023-07-22T06:58:19;99835.44;;;17.91;59.89
77023;BME280;65952;51.440;-2.054;2023-07-22T07:00:44;99843.75;;;17.96;59.76
77023;BME280;65952;51.440;-2.054;2023-07-22T07:03:10;99835.41;;;18.10;59.18
77023;BME280;65952;51.440;-2.054;2023-07-22T07:05:35;99847.91;;;17.99;59.91
77023;BME280;65952;51.440;-2.054;2023-07-22T07:08:01;99836.19;;;17.98;59.73
77023;BME280;65952;51.440;-2.054;2023-07-22T07:10:26;99837.03;;;18.29;59.09
77023;BME280;65952;51.440;-2.054;2023-07-22T07:12:52;99833.19;;;18.18;59.43
77023;BME280;65952;51.440;-2.054;2023-07-22T07:15:17;99832.25;;;18.13;59.13
77023;BME280;65952;51.440;-2.054;2023-07-22T07:17:43;99831.41;;;18.12;58.96
77023;BME280;65952;51.440;-2.054;2023-07-22T07:20:09;99828.47;;;18.14;59.01
77023;BME280;65952;51.440;-2.054;2023-07-22T07:22:34;99828.34;;;18.51;58.56
77023;BME280;65952;51.440;-2.054;2023-07-22T07:25:00;99822.16;;;18.74;57.81
77023;BME280;65952;51.440;-2.054;2023-07-22T07:27:25;99823.53;;;18.65;57.44
77023;BME280;65952;51.440;-2.054;2023-07-22T07:29:51;99824.94;;;18.56;57.34
77023;BME280;65952;51.440;-2.054;2023-07-22T07:32:16;99829.38;;;18.38;58.01
77023;BME280;65952;51.440;-2.054;2023-07-22T07:34:41;99817.31;;;18.03;58.92
77023;BME280;65952;51.440;-2.054;2023-07-22T07:37:07;99815.34;;;17.92;60.13
77023;BME280;65952;51.440;-2.054;2023-07-22T07:39:32;99813.72;;;17.91;59.81
77023;BME280;65952;51.440;-2.054;2023-07-22T07:41:57;99817.19;;;17.80;60.11
77023;BME280;65952;51.440;-2.054;2023-07-22T07:44:23;99812.56;;;17.80;60.56
77023;BME280;65952;51.440;-2.054;2023-07-22T07:46:48;99806.00;;;17.88;60.72
77023;BME280;65952;51.440;-2.054;2023-07-22T07:49:14;99810.47;;;17.82;60.03
77023;BME280;65952;51.440;-2.054;2023-07-22T07:51:40;99803.75;;;17.85;60.86
77023;BME280;65952;51.440;-2.054;2023-07-22T07:54:07;99806.13;;;17.93;60.49
77023;BME280;65952;51.440;-2.054;2023-07-22T07:56:33;99798.47;;;17.90;60.47
77023;BME280;65952;51.440;-2.054;2023-07-22T07:58:58;99799.72;;;18.06;60.51
77023;BME280;65952;51.440;-2.054;2023-07-22T08:01:24;99797.47;;;17.84;61.13
77023;BME280;65952;51.440;-2.054;2023-07-22T08:03:50;99805.19;;;17.87;60.99
77023;BME280;65952;51.440;-2.054;2023-07-22T08:06:15;99798.00;;;17.93;60.87
77023;BME280;65952;51.440;-2.054;2023-07-22T08:08:41;99792.75;;;17.80;61.19
77023;BME280;65952;51.440;-2.054;2023-07-22T08:11:08;99802.84;;;17.91;61.43
77023;BME280;65952;51.440;-2.054;2023-07-22T08:13:35;99799.72;;;18.06;60.78
77023;BME280;65952;51.440;-2.054;2023-07-22T08:16:02;99793.84;;;18.09;60.88
77023;BME280;65952;51.440;-2.054;2023-07-22T08:18:28;99805.91;;;18.13;60.71
77023;BME280;65952;51.440;-2.054;2023-07-22T08:20:55;99794.09;;;18.08;61.11
77023;BME280;65952;51.440;-2.054;2023-07-22T08:23:21;99788.59;;;17.96;61.14
77023;BME280;65952;51.440;-2.054;2023-07-22T08:25:47;99783.75;;;17.79;61.49
77023;BME280;65952;51.440;-2.054;2023-07-22T08:28:12;99776.81;;;18.02;61.41
77023;BME280;65952;51.440;-2.054;2023-07-22T08:30:38;99782.97;;;18.09;61.52
77023;BME280;65952;51.440;-2.054;2023-07-22T08:33:06;99782.16;;;18.09;61.38
77023;BME280;65952;51.440;-2.054;2023-07-22T08:35:34;99779.75;;;18.00;61.31
77023;BME280;65952;51.440;-2.054;2023-07-22T08:38:00;99777.41;;;18.04;61.47
77023;BME280;65952;51.440;-2.054;2023-07-22T08:40:27;99778.09;;;17.99;62.03
77023;BME280;65952;51.440;-2.054;2023-07-22T08:42:53;99770.56;;;17.83;62.62
77023;BME280;65952;51.440;-2.054;2023-07-22T08:45:19;99764.38;;;17.94;62.41
77023;BME280;65952;51.440;-2.054;2023-07-22T08:47:46;99770.41;;;17.96;62.51
77023;BME280;65952;51.440;-2.054;2023-07-22T08:50:16;99766.84;;;17.96;62.81
77023;BME280;65952;51.440;-2.054;2023-07-22T08:52:45;99772.28;;;17.96;63.34
77023;BME280;65952;51.440;-2.054;2023-07-22T08:55:12;99769.81;;;17.94;63.15
77023;BME280;65952;51.440;-2.054;2023-07-22T08:57:38;99764.91;;;17.84;64.08
77023;BME280;65952;51.440;-2.054;2023-07-22T09:00:06;99761.81;;;17.99;64.08
77023;BME280;65952;51.440;-2.054;2023-07-22T09:02:35;99761.34;;;18.02;63.87
77023;BME280;65952;51.440;-2.054;2023-07-22T09:05:02;99763.09;;;17.78;65.11
77023;BME280;65952;51.440;-2.054;2023-07-22T09:07:28;99758.88;;;17.82;64.96
77023;BME280;65952;51.440;-2.054;2023-07-22T09:09:56;99754.91;;;17.66;65.36
77023;BME280;65952;51.440;-2.054;2023-07-22T09:12:22;99763.19;;;17.71;65.46
77023;BME280;65952;51.440;-2.054;2023-07-22T09:14:49;99758.66;;;17.84;65.84
77023;BME280;65952;51.440;-2.054;2023-07-22T09:17:15;99758.22;;;17.68;66.34
77023;BME280;65952;51.440;-2.054;2023-07-22T09:19:40;99771.06;;;17.61;66.30
77023;BME280;65952;51.440;-2.054;2023-07-22T09:22:07;99759.06;;;17.50;67.45
77023;BME280;65952;51.440;-2.054;2023-07-22T09:24:33;99767.66;;;17.47;67.82
77023;BME280;65952;51.440;-2.054;2023-07-22T09:26:58;99773.53;;;17.26;68.28
77023;BME280;65952;51.440;-2.054;2023-07-22T09:29:35;99773.72;;;17.05;69.17
77023;BME280;65952;51.440;-2.054;2023-07-22T09:32:01;99762.22;;;17.10;69.42
77023;BME280;65952;51.440;-2.054;2023-07-22T09:34:30;99771.94;;;17.18;69.62
77023;BME280;65952;51.440;-2.054;2023-07-22T09:36:57;99775.72;;;17.17;69.66
77023;BME280;65952;51.440;-2.054;2023-07-22T09:39:23;99768.28;;;17.31;69.51
77023;BME280;65952;51.440;-2.054;2023-07-22T09:41:50;99764.19;;;17.21;69.58
77023;BME280;65952;51.440;-2.054;2023-07-22T09:44:18;99765.03;;;17.22;69.82
77023;BME280;65952;51.440;-2.054;2023-07-22T09:46:49;99764.28;;;17.15;69.75
77023;BME280;65952;51.440;-2.054;2023-07-22T09:49:17;99758.69;;;17.10;69.71
77023;BME280;65952;51.440;-2.054;2023-07-22T09:51:43;99754.34;;;16.83;70.43
77023;BME280;65952;51.440;-2.054;2023-07-22T09:54:09;99759.47;;;16.92;70.53
77023;BME280;65952;51.440;-2.054;2023-07-22T09:56:44;99749.06;;;16.88;70.67
77023;BME280;65952;51.440;-2.054;2023-07-22T09:59:11;99742.88;;;16.81;71.27
77023;BME280;65952;51.440;-2.054;2023-07-22T10:01:40;99747.16;;;16.89;70.64
77023;BME280;65952;51.440;-2.054;2023-07-22T10:04:25;99744.66;;;16.94;70.68
77023;BME280;65952;51.440;-2.054;2023-07-22T10:06:53;99743.41;;;16.97;70.66
77023;BME280;65952;51.440;-2.054;2023-07-22T10:09:21;99747.91;;;17.03;70.83
77023;BME280;65952;51.440;-2.054;2023-07-22T10:11:48;99745.91;;;16.92;70.67
77023;BME280;65952;51.440;-2.054;2023-07-22T10:14:14;99736.00;;;17.04;70.49
77023;BME280;65952;51.440;-2.054;2023-07-22T10:16:40;99741.75;;;16.89;70.54
77023;BME280;65952;51.440;-2.054;2023-07-22T10:19:08;99736.25;;;16.77;70.57
77023;BME280;65952;51.440;-2.054;2023-07-22T10:21:34;99744.16;;;16.79;70.70
77023;BME280;65952;51.440;-2.054;2023-07-22T10:24:02;99746.47;;;16.75;71.23
77023;BME280;65952;51.440;-2.054;2023-07-22T10:26:28;99739.38;;;16.74;71.31
77023;BME280;65952;51.440;-2.054;2023-07-22T10:32:33;99732.97;;;16.94;71.32
77023;BME280;65952;51.440;-2.054;2023-07-22T10:34:59;99729.75;;;17.03;71.48
77023;BME280;65952;51.440;-2.054;2023-07-22T10:37:32;99729.38;;;17.00;71.73
77023;BME280;65952;51.440;-2.054;2023-07-22T10:43:05;99717.34;;;16.89;72.23
77023;BME280;65952;51.440;-2.054;2023-07-22T10:45:32;99722.38;;;16.67;72.75
77023;BME280;65952;51.440;-2.054;2023-07-22T10:48:06;99717.13;;;16.72;72.12
77023;BME280;65952;51.440;-2.054;2023-07-22T10:50:48;99709.31;;;16.57;72.72
77023;BME280;65952;51.440;-2.054;2023-07-22T10:56:15;99693.78;;;16.71;71.74
77023;BME280;65952;51.440;-2.054;2023-07-22T11:01:36;99692.88;;;16.77;71.53
77023;BME280;65952;51.440;-2.054;2023-07-22T11:10:11;99684.47;;;16.60;71.41
77023;BME280;65952;51.440;-2.054;2023-07-22T11:12:38;99671.16;;;16.58;71.27
77023;BME280;65952;51.440;-2.054;2023-07-22T11:15:05;99662.59;;;16.62;71.45
77023;BME280;65952;51.440;-2.054;2023-07-22T11:17:32;99660.00;;;16.48;72.03
77023;BME280;65952;51.440;-2.054;2023-07-22T11:19:59;99648.59;;;16.65;71.91
77023;BME280;65952;51.440;-2.054;2023-07-22T11:22:25;99645.75;;;16.78;71.96
77023;BME280;65952;51.440;-2.054;2023-07-22T11:24:54;99637.22;;;16.74;72.10
77023;BME280;65952;51.440;-2.054;2023-07-22T11:27:20;99632.50;;;16.88;72.31
77023;BME280;65952;51.440;-2.054;2023-07-22T11:29:45;99639.38;;;16.91;71.81
77023;BME280;65952;51.440;-2.054;2023-07-22T11:32:17;99639.59;;;17.08;71.50
77023;BME280;65952;51.440;-2.054;2023-07-22T11:34:43;99624.69;;;16.99;71.55
77023;BME280;65952;51.440;-2.054;2023-07-22T11:37:11;99630.84;;;17.06;71.51
77023;BME280;65952;51.440;-2.054;2023-07-22T11:39:38;99624.91;;;17.16;71.80
77023;BME280;65952;51.440;-2.054;2023-07-22T11:42:04;99621.44;;;17.09;71.96
77023;BME280;65952;51.440;-2.054;2023-07-22T11:44:31;99629.19;;;17.24;71.47
77023;BME280;65952;51.440;-2.054;2023-07-22T11:47:03;99616.56;;;17.29;71.31
77023;BME280;65952;51.440;-2.054;2023-07-22T11:49:37;99613.66;;;17.31;71.84
77023;BME280;65952;51.440;-2.054;2023-07-22T11:52:08;99607.84;;;17.27;71.33
77023;BME280;65952;51.440;-2.054;2023-07-22T11:54:35;99611.47;;;17.51;71.22
77023;BME280;65952;51.440;-2.054;2023-07-22T11:57:23;99595.94;;;17.70;70.47
77023;BME280;65952;51.440;-2.054;2023-07-22T11:59:53;99596.91;;;17.88;70.09
77023;BME280;65952;51.440;-2.054;2023-07-22T12:02:22;99599.13;;;17.67;70.27
77023;BME280;65952;51.440;-2.054;2023-07-22T12:04:57;99591.91;;;17.61;70.65
77023;BME280;65952;51.440;-2.054;2023-07-22T12:07:28;99589.06;;;17.56;71.37
77023;BME280;65952;51.440;-2.054;2023-07-22T12:13:36;99578.84;;;17.70;71.42
77023;BME280;65952;51.440;-2.054;2023-07-22T12:16:03;99587.09;;;17.75;71.02
77023;BME280;65952;51.440;-2.054;2023-07-22T12:18:50;99571.38;;;17.65;71.29
77023;BME280;65952;51.440;-2.054;2023-07-22T12:21:22;99563.59;;;17.69;71.51
77023;BME280;65952;51.440;-2.054;2023-07-22T12:23:48;99568.81;;;17.82;71.06
77023;BME280;65952;51.440;-2.054;2023-07-22T12:26:14;99555.03;;;17.96;71.04
77023;BME280;65952;51.440;-2.054;2023-07-22T12:28:39;99550.53;;;18.37;70.32
77023;BME280;65952;51.440;-2.054;2023-07-22T12:31:05;99560.47;;;18.43;70.09
77023;BME280;65952;51.440;-2.054;2023-07-22T12:33:30;99558.34;;;18.33;69.74
77023;BME280;65952;51.440;-2.054;2023-07-22T12:35:56;99556.34;;;18.41;69.22
77023;BME280;65952;51.440;-2.054;2023-07-22T12:41:44;99544.66;;;18.28;70.13
77023;BME280;65952;51.440;-2.054;2023-07-22T12:44:09;99544.41;;;18.18;70.65
77023;BME280;65952;51.440;-2.054;2023-07-22T12:46:39;99543.22;;;18.26;70.13
77023;BME280;65952;51.440;-2.054;2023-07-22T12:49:04;99551.25;;;18.21;70.49
77023;BME280;65952;51.440;-2.054;2023-07-22T12:54:59;99548.31;;;18.34;69.86
77023;BME280;65952;51.440;-2.054;2023-07-22T12:57:25;99539.44;;;18.27;70.42
77023;BME280;65952;51.440;-2.054;2023-07-22T12:59:50;99536.50;;;18.16;70.84
77023;BME280;65952;51.440;-2.054;2023-07-22T13:02:16;99531.06;;;18.40;69.80
77023;BME280;65952;51.440;-2.054;2023-07-22T13:04:41;99533.53;;;18.30;69.45
77023;BME280;65952;51.440;-2.054;2023-07-22T13:07:09;99525.63;;;17.93;71.30
77023;BME280;65952;51.440;-2.054;2023-07-22T13:09:34;99532.31;;;17.78;71.68
77023;BME280;65952;51.440;-2.054;2023-07-22T13:12:00;99522.19;;;17.74;72.90
77023;BME280;65952;51.440;-2.054;2023-07-22T13:14:26;99524.22;;;18.02;72.24